createdAt,value
2023-03-12T00:01:24.071Z,100470.19
2023-03-12T00:06:25.777Z,100479.53
2023-03-12T00:11:27.685Z,100482.09
2023-03-12T00:16:30.724Z,100480.25
2023-03-12T00:21:32.408Z,100477.63
2023-03-12T00:26:34.110Z,100472.56
2023-03-12T00:31:37.411Z,100470.69
2023-03-12T00:36:41.191Z,100466.31
2023-03-12T00:41:42.982Z,100475.59
2023-03-12T00:46:46.103Z,100473.84
2023-03-12T00:51:48.089Z,100472.91
2023-03-12T00:56:49.896Z,100468.38
2023-03-12T01:01:53.018Z,100463.31
2023-03-12T01:06:55.060Z,100466.19
2023-03-12T01:11:56.796Z,100459.28
2023-03-12T01:16:59.916Z,100461.09
2023-03-12T01:22:01.769Z,100466.19
2023-03-12T01:27:04.685Z,100459.34
2023-03-12T01:32:08.113Z,100462.06
2023-03-12T01:37:09.847Z,100474.91
2023-03-12T01:42:11.600Z,100480.06
2023-03-12T01:47:14.976Z,100480.06
2023-03-12T01:52:17.443Z,100486.06
2023-03-12T01:57:24.590Z,100487.19
2023-03-12T02:02:29.772Z,100489.81
2023-03-12T02:07:34.648Z,100489.81
2023-03-12T02:12:36.337Z,100494.84
2023-03-12T02:17:40.503Z,100498.25
2023-03-12T02:22:44.394Z,100507.56
2023-03-12T02:27:47.430Z,100500.63
2023-03-12T02:32:49.670Z,100505.59
2023-03-12T02:37:54.385Z,100505.56
2023-03-12T02:42:58.079Z,100496.16
2023-03-12T02:48:00.009Z,100494.41
2023-03-12T02:53:01.794Z,100492.66
2023-03-12T02:58:05.073Z,100495.88
2023-03-12T03:03:06.862Z,100494.28
2023-03-12T03:08:08.593Z,100506.88
2023-03-12T03:13:11.677Z,100501.59
2023-03-12T03:18:13.604Z,100500.59
2023-03-12T03:23:15.357Z,100499.38
2023-03-12T03:28:18.533Z,100509.22
2023-03-12T03:33:20.421Z,100510.19
2023-03-12T03:38:22.549Z,100507.56
2023-03-12T03:43:25.734Z,100516.91
2023-03-12T03:48:27.778Z,100521.41
2023-03-12T03:53:29.764Z,100517.03
2023-03-12T03:58:33.262Z,100515.03
2023-03-12T04:03:35.325Z,100525.91
2023-03-12T04:08:38.917Z,100522.19
2023-03-12T04:13:45.499Z,100519.34
2023-03-12T04:18:49.188Z,100526.53
2023-03-12T04:23:51.879Z,100524.38
2023-03-12T04:28:57.747Z,100518.91
2023-03-12T04:33:59.664Z,100515.47
2023-03-12T04:39:01.881Z,100519.19
2023-03-12T04:44:11.615Z,100517.19
2023-03-12T04:49:14.977Z,100511.69
2023-03-12T04:54:17.769Z,100506.78
2023-03-12T04:59:20.996Z,100509.56
2023-03-12T05:04:22.961Z,100510.47
2023-03-12T05:09:25.477Z,100513.91
2023-03-12T05:14:29.124Z,100513.31
2023-03-12T05:19:31.113Z,100519.09
2023-03-12T05:24:32.988Z,100516.41
2023-03-12T05:29:37.477Z,100514.72
2023-03-12T05:34:39.332Z,100522.91
2023-03-12T05:39:46.735Z,100522.03
2023-03-12T05:44:52.295Z,100517.09
2023-03-12T05:49:56.283Z,100513.97
2023-03-12T05:54:58.279Z,100505.22
2023-03-12T06:00:01.775Z,100503.38
2023-03-12T06:05:14.925Z,100489.34
2023-03-12T06:10:17.229Z,100490.88
2023-03-12T06:15:21.142Z,100479.69
2023-03-12T06:20:23.062Z,100477.06
2023-03-12T06:25:24.898Z,100476.13
2023-03-12T06:30:28.087Z,100477.72
2023-03-12T06:35:30.019Z,100476.72
2023-03-12T06:40:32.955Z,100469.25
2023-03-12T06:45:36.072Z,100461.16
2023-03-12T06:50:37.885Z,100450.91
2023-03-12T06:55:39.583Z,100456.13
2023-03-12T07:00:42.755Z,100458.81
2023-03-12T07:05:44.714Z,100463.31
2023-03-12T07:10:46.478Z,100462.69
2023-03-12T07:15:49.848Z,100463.47
2023-03-12T07:20:51.954Z,100459.81
2023-03-12T07:25:53.833Z,100462.59
2023-03-12T07:31:01.243Z,100458.22
2023-03-12T07:36:03.475Z,100451.28
2023-03-12T07:41:05.302Z,100452.22
2023-03-12T07:46:08.381Z,100455.97
2023-03-12T07:51:10.062Z,100451.47
2023-03-12T07:56:11.936Z,100454.66
2023-03-12T08:01:15.260Z,100452.91
2023-03-12T08:06:17.046Z,100450.22
2023-03-12T08:11:18.873Z,100443.16
2023-03-12T08:16:21.934Z,100444.94
2023-03-12T08:21:23.885Z,100450.63
2023-03-12T08:26:25.634Z,100435.72
2023-03-12T08:31:28.980Z,100426.41
2023-03-12T08:36:30.731Z,100417.09
2023-03-12T08:41:32.516Z,100400.94
2023-03-12T08:46:35.504Z,100396.16
2023-03-12T08:51:37.238Z,100399.59
2023-03-12T08:56:42.293Z,100410.50
2023-03-12T09:01:45.362Z,100415.59
2023-03-12T09:06:47.280Z,100415.66
2023-03-12T09:11:49.009Z,100429.59
2023-03-12T09:16:52.150Z,100414.34
2023-03-12T09:21:53.965Z,100416.25
2023-03-12T09:26:55.647Z,100400.38
2023-03-12T09:31:58.646Z,100381.63
2023-03-12T09:37:00.332Z,100383.66
2023-03-12T09:42:02.156Z,100374.41
2023-03-12T09:47:07.731Z,100373.69
2023-03-12T09:52:16.598Z,100361.34
2023-03-12T09:57:21.046Z,100357.41
2023-03-12T10:02:55.979Z,100349.16
2023-03-12T10:07:58.479Z,100323.53
2023-03-12T10:13:08.193Z,100320.47
2023-03-12T10:18:17.286Z,100304.53
2023-03-12T10:23:23.277Z,100302.84
2023-03-12T10:28:28.639Z,100303.34
2023-03-12T10:33:37.730Z,100304.06
2023-03-12T10:38:39.394Z,100288.13
2023-03-12T10:43:41.098Z,100295.72
2023-03-12T10:48:44.255Z,100284.16
2023-03-12T10:53:47.991Z,100282.19
2023-03-12T10:58:50.939Z,100279.03
2023-03-12T11:04:07.646Z,100270.72
2023-03-12T11:09:17.557Z,100252.53
2023-03-12T11:14:20.279Z,100229.38
2023-03-12T11:19:28.766Z,100228.13
2023-03-12T11:24:30.487Z,100233.06
2023-03-12T11:29:33.292Z,100242.34
2023-03-12T11:34:37.433Z,100235.28
2023-03-12T11:39:50.933Z,100208.22
2023-03-12T11:44:56.877Z,100205.56
2023-03-12T11:50:06.132Z,100214.06
2023-03-12T11:55:19.029Z,100202.72
2023-03-12T12:00:22.533Z,100173.63
2023-03-12T12:05:32.318Z,100168.44
2023-03-12T12:10:37.712Z,100157.03
2023-03-12T12:15:43.792Z,100158.53
2023-03-12T12:20:48.897Z,100167.53
2023-03-12T12:26:00.330Z,100157.63
2023-03-12T12:31:08.197Z,100146.19
2023-03-12T12:36:11.425Z,100129.09
2023-03-12T12:41:15.409Z,100131.94
2023-03-12T12:46:18.188Z,100131.72
2023-03-12T12:51:22.854Z,100116.88
2023-03-12T12:56:28.186Z,100117.56
2023-03-12T13:01:30.069Z,100122.34
2023-03-12T13:06:58.012Z,100120.22
2023-03-12T13:11:59.771Z,100106.22
2023-03-12T13:17:19.681Z,100092.66
2023-03-12T13:22:29.352Z,100080.31
2023-03-12T13:27:31.958Z,100081.91
2023-03-12T13:32:38.568Z,100090.13
2023-03-12T13:37:59.046Z,100093.75
2023-03-12T13:43:09.292Z,100076.66
2023-03-12T13:48:14.272Z,100068.91
2023-03-12T13:53:20.731Z,100064.47
2023-03-12T13:58:23.578Z,100043.88
2023-03-12T14:03:26.318Z,100037.88
2023-03-12T14:08:40.386Z,100029.19
2023-03-12T14:14:04.025Z,100045.59
2023-03-12T14:19:05.873Z,100054.22
2023-03-12T14:24:12.726Z,100049.63
2023-03-12T14:29:19.309Z,100051.47
2023-03-12T14:34:22.884Z,100036.88
2023-03-12T14:39:28.128Z,100023.03
2023-03-12T14:44:30.627Z,100018.72
2023-03-12T14:49:32.351Z,100022.81
2023-03-12T14:54:35.541Z,100011.78
2023-03-12T14:59:38.973Z,100010.28
2023-03-12T15:04:40.736Z,100001.66
2023-03-12T15:09:44.746Z,100002.53
2023-03-12T15:14:46.419Z,99990.69
2023-03-12T15:19:48.150Z,99977.84
2023-03-12T15:24:51.145Z,99973.34
2023-03-12T15:29:53.000Z,99972.25
2023-03-12T15:34:55.148Z,99964.59
2023-03-12T15:39:59.251Z,99955.88
2023-03-12T15:45:03.207Z,99943.91
2023-03-12T15:50:07.752Z,99935.50
2023-03-12T15:55:22.634Z,99928.47
2023-03-12T16:00:26.681Z,99950.72
2023-03-12T16:05:30.201Z,99940.53
2023-03-12T16:10:33.297Z,99936.25
2023-03-12T16:15:37.502Z,99930.19
2023-03-12T16:20:39.402Z,99952.53
2023-03-12T16:25:43.098Z,99944.03
2023-03-12T16:30:45.113Z,99932.09
2023-03-12T16:35:46.947Z,99923.63
2023-03-12T16:40:50.223Z,99927.81
2023-03-12T16:45:52.532Z,99919.25
2023-03-12T16:50:55.773Z,99927.94
2023-03-12T16:56:00.693Z,99922.03
2023-03-12T17:01:03.055Z,99923.84
2023-03-12T17:06:05.499Z,99924.78
2023-03-12T17:11:14.169Z,99934.31
2023-03-12T17:16:16.198Z,99941.47
2023-03-12T17:21:18.281Z,99934.56
2023-03-12T17:26:21.591Z,99936.34
2023-03-12T17:31:24.681Z,99926.13
2023-03-12T17:36:26.600Z,99938.28
2023-03-12T17:41:30.808Z,99938.34
2023-03-12T17:46:32.722Z,99947.03
2023-03-12T17:51:34.754Z,99949.72
2023-03-12T17:56:37.773Z,99951.44
2023-03-12T18:01:39.483Z,99933.50
2023-03-12T18:06:41.150Z,99931.91
2023-03-12T18:11:44.320Z,99936.41
2023-03-12T18:16:47.058Z,99945.03
2023-03-12T18:21:48.729Z,99941.63
2023-03-12T18:26:52.169Z,99952.81
2023-03-12T18:31:53.900Z,99950.31
2023-03-12T18:36:55.582Z,99944.28
2023-03-12T18:41:58.591Z,99942.56
2023-03-12T18:47:00.328Z,99934.03
2023-03-12T18:52:02.062Z,99939.22
2023-03-12T18:57:05.216Z,99947.94
2023-03-12T19:02:07.408Z,99949.81
2023-03-12T19:07:10.650Z,99950.69
2023-03-12T19:12:14.157Z,99957.63
2023-03-12T19:17:15.884Z,99941.25
2023-03-12T19:22:17.583Z,99945.56
2023-03-12T19:27:21.035Z,99955.00
2023-03-12T19:32:25.383Z,99953.25
2023-03-12T19:37:29.380Z,99958.38
2023-03-12T19:42:32.456Z,99944.66
2023-03-12T19:47:34.210Z,99950.59
2023-03-12T19:52:35.968Z,99951.56
2023-03-12T19:57:39.110Z,99936.94
2023-03-12T20:02:41.174Z,99943.91
2023-03-12T20:07:44.240Z,99951.88
2023-03-12T20:12:47.350Z,99949.28
2023-03-12T20:17:49.059Z,99939.59
2023-03-12T20:22:50.778Z,99934.47
2023-03-12T20:27:53.826Z,99927.53
2023-03-12T20:32:55.620Z,99928.47
2023-03-12T20:37:57.411Z,99934.53
2023-03-12T20:43:04.629Z,99925.91
2023-03-12T20:48:10.035Z,99919.91
2023-03-12T20:53:11.840Z,99922.47
2023-03-12T20:58:14.850Z,99923.44
2023-03-12T21:03:17.195Z,99942.41
2023-03-12T21:08:18.922Z,99938.25
2023-03-12T21:13:22.469Z,99940.91
2023-03-12T21:18:25.017Z,99940.94
2023-03-12T21:23:27.172Z,99949.66
2023-03-12T21:28:30.957Z,99943.69
2023-03-12T21:33:32.678Z,99936.75
2023-03-12T21:38:34.461Z,99937.63
2023-03-12T21:43:37.499Z,99930.72
2023-03-12T21:48:39.375Z,99923.81
2023-03-12T21:53:41.124Z,99925.56
2023-03-12T21:58:44.874Z,99920.41
2023-03-12T22:03:46.706Z,99917.81
2023-03-12T22:08:49.162Z,99913.47
2023-03-12T22:13:52.220Z,99903.91
2023-03-12T22:18:53.904Z,99893.53
2023-03-12T22:23:57.221Z,99884.00
2023-03-12T22:29:01.213Z,99882.31
2023-03-12T22:34:03.025Z,99880.56
2023-03-12T22:39:05.679Z,99889.19
2023-03-12T22:44:09.283Z,99872.75
2023-03-12T22:49:11.061Z,99867.56
2023-03-12T22:54:12.794Z,99861.53
2023-03-12T22:59:15.828Z,99851.97
2023-03-12T23:04:17.567Z,99846.78
2023-03-12T23:09:19.419Z,99849.41
2023-03-12T23:14:22.667Z,99838.19
2023-03-12T23:19:24.387Z,99836.41
2023-03-12T23:24:26.143Z,99827.75
2023-03-12T23:29:30.588Z,99820.84
2023-03-12T23:34:33.256Z,99811.41
2023-03-12T23:39:44.973Z,99799.31
2023-03-12T23:44:55.058Z,99792.34
2023-03-12T23:49:56.819Z,99794.97
2023-03-12T23:54:58.518Z,99789.75
